Time;durP1;ratioP1;P1;durP2;ratioP2;P2;SDS_P1;SDS_P2;PMS_P1;PMS_P2;Temp;Humidity;BMP_temperature;BMP_pressure;BME280_temperature;BME280_humidity;BME280_pressure;Samples;Min_cycle;Max_cycle;Signal;HPM_P1;HPM_P2
2024/01/14 00:00:45;;;;;;;9.40;5.40;;;1.20;99.90;;;;;;5021547;23;20203;-89
2024/01/14 00:02:45;;;;;;;11.40;4.37;;;1.20;99.90;;;;;;5069470;23;20233;-92
2024/01/14 00:04:46;;;;;;;10.57;4.27;;;1.30;99.90;;;;;;5021435;23;20170;-88
2024/01/14 00:06:47;;;;;;;17.50;6.13;;;1.40;99.90;;;;;;5045284;23;20213;-91
2024/01/14 00:08:48;;;;;;;11.70;4.67;;;1.40;99.90;;;;;;5022787;23;20154;-93
2024/01/14 00:10:48;;;;;;;22.33;6.90;;;1.40;99.90;;;;;;5023133;23;20587;-92
2024/01/14 00:12:50;;;;;;;23.50;7.73;;;1.40;99.90;;;;;;5021499;23;20203;-93
2024/01/14 00:14:51;;;;;;;10.53;5.20;;;1.40;99.90;;;;;;5045215;23;20154;-92
2024/01/14 00:16:52;;;;;;;14.57;5.80;;;1.50;99.90;;;;;;5021903;23;20163;-93
2024/01/14 00:18:53;;;;;;;11.53;3.93;;;1.50;99.90;;;;;;5021584;23;20218;-94
2024/01/14 00:20:53;;;;;;;11.80;5.10;;;1.40;99.90;;;;;;5021844;23;20237;-92
2024/01/14 00:22:54;;;;;;;10.70;4.70;;;1.30;99.90;;;;;;5045397;23;20582;-92
2024/01/14 00:24:55;;;;;;;23.43;6.73;;;1.30;99.90;;;;;;5045012;23;20233;-92
2024/01/14 00:26:55;;;;;;;19.07;7.93;;;1.20;99.90;;;;;;5045214;23;20218;-93
2024/01/14 00:28:58;;;;;;;12.70;5.97;;;1.30;99.90;;;;;;5021250;23;20158;-94
2024/01/14 00:30:59;;;;;;;12.73;5.20;;;1.40;99.90;;;;;;5021049;23;20166;-93
2024/01/14 00:33:00;;;;;;;13.10;6.40;;;1.30;99.90;;;;;;5021258;23;20155;-90
2024/01/14 00:35:00;;;;;;;11.20;5.00;;;1.30;99.90;;;;;;5021293;23;20185;-89
2024/01/14 00:37:01;;;;;;;15.67;6.70;;;1.30;99.90;;;;;;5021271;23;20170;-89
2024/01/14 00:39:02;;;;;;;13.30;5.47;;;1.50;99.90;;;;;;5021531;23;20150;-89
2024/01/14 00:41:04;;;;;;;17.20;7.10;;;1.40;99.90;;;;;;5045010;23;20158;-90
2024/01/14 00:43:04;;;;;;;7.50;4.47;;;1.40;99.90;;;;;;5021534;23;20229;-89
2024/01/14 00:45:05;;;;;;;25.10;7.87;;;1.30;99.90;;;;;;5045094;23;20237;-93
2024/01/14 00:47:06;;;;;;;25.47;8.17;;;1.40;99.90;;;;;;5021229;23;20222;-91
2024/01/14 00:49:07;;;;;;;18.00;6.13;;;1.40;99.90;;;;;;5045190;23;20165;-94
2024/01/14 00:51:08;;;;;;;9.57;4.67;;;1.40;99.90;;;;;;5021082;23;20155;-90
2024/01/14 00:53:08;;;;;;;19.77;7.77;;;1.30;99.90;;;;;;5021379;23;20207;-90
2024/01/14 00:55:09;;;;;;;15.13;6.03;;;1.30;99.90;;;;;;5020967;23;20223;-89
2024/01/14 00:57:10;;;;;;;11.40;5.17;;;1.30;99.90;;;;;;5021280;23;20161;-89
2024/01/14 00:59:11;;;;;;;16.30;6.90;;;1.30;99.90;;;;;;5021193;23;20155;-91
2024/01/14 01:01:12;;;;;;;20.40;7.57;;;1.40;99.90;;;;;;5020938;23;20471;-90
2024/01/14 01:03:13;;;;;;;15.03;5.73;;;1.60;99.90;;;;;;5021014;23;20274;-90
2024/01/14 01:05:14;;;;;;;18.60;6.60;;;1.50;99.90;;;;;;5045041;23;20190;-92
2024/01/14 01:07:15;;;;;;;17.67;6.37;;;1.60;99.90;;;;;;5021147;23;20195;-89
2024/01/14 01:09:15;;;;;;;28.30;6.27;;;1.60;99.90;;;;;;5044883;23;20612;-89
2024/01/14 01:11:17;;;;;;;13.97;5.93;;;1.50;99.90;;;;;;5045027;23;20150;-92
2024/01/14 01:13:18;;;;;;;21.17;7.77;;;1.50;99.90;;;;;;5044821;23;20241;-89
2024/01/14 01:15:19;;;;;;;12.47;6.17;;;1.50;99.90;;;;;;5021237;23;20502;-89
2024/01/14 01:17:19;;;;;;;19.87;6.23;;;1.60;99.90;;;;;;5021264;23;20155;-94
2024/01/14 01:19:20;;;;;;;15.87;6.20;;;1.60;99.90;;;;;;5020940;23;20151;-90
2024/01/14 01:21:22;;;;;;;21.03;7.33;;;1.60;99.90;;;;;;5021448;23;20213;-90
2024/01/14 01:23:22;;;;;;;22.17;5.30;;;1.60;99.90;;;;;;5021029;23;20151;-89
2024/01/14 01:25:23;;;;;;;11.43;5.90;;;1.70;99.90;;;;;;5044847;23;20229;-89
2024/01/14 01:27:25;;;;;;;19.97;6.27;;;1.80;99.90;;;;;;5044969;23;20165;-89
2024/01/14 01:29:26;;;;;;;20.10;5.50;;;1.80;99.90;;;;;;5021190;23;20151;-93
2024/01/14 01:31:27;;;;;;;22.10;6.87;;;1.80;99.90;;;;;;5044832;23;20229;-89
2024/01/14 01:33:27;;;;;;;9.90;4.43;;;1.80;99.90;;;;;;5045145;23;20154;-93
2024/01/14 01:35:28;;;;;;;14.50;7.03;;;1.70;99.90;;;;;;5021083;23;20181;-92
2024/01/14 01:37:29;;;;;;;12.40;5.43;;;1.60;99.90;;;;;;5045271;23;20147;-89
2024/01/14 01:39:31;;;;;;;8.33;3.93;;;1.40;99.90;;;;;;5045398;23;20154;-89
2024/01/14 01:41:31;;;;;;;16.10;5.27;;;1.30;99.90;;;;;;5045345;23;20158;-90
2024/01/14 01:43:32;;;;;;;12.90;3.40;;;1.20;99.90;;;;;;5044999;23;20158;-89
2024/01/14 01:45:33;;;;;;;7.03;4.37;;;1.10;99.90;;;;;;5044691;23;20267;-89
2024/01/14 01:47:34;;;;;;;8.17;4.47;;;1.20;99.90;;;;;;5044807;23;20182;-93
2024/01/14 01:49:35;;;;;;;11.10;5.70;;;1.20;99.90;;;;;;5020893;23;20147;-91
2024/01/14 01:51:39;;;;;;;8.83;5.30;;;1.10;99.90;;;;;;5021077;23;20211;-89
2024/01/14 01:53:40;;;;;;;16.27;6.70;;;1.10;99.90;;;;;;5021060;23;20154;-90
2024/01/14 01:55:41;;;;;;;13.47;5.40;;;1.10;99.90;;;;;;5021220;23;20238;-88
2024/01/14 01:57:44;;;;;;;9.27;3.47;;;1.10;99.90;;;;;;5045382;23;20225;-92
2024/01/14 01:59:45;;;;;;;12.10;6.17;;;1.10;99.90;;;;;;5046468;23;20158;-91
2024/01/14 02:01:47;;;;;;;18.50;6.20;;;1.20;99.90;;;;;;5022747;23;20652;-94
2024/01/14 02:03:52;;;;;;;20.67;5.53;;;1.20;99.90;;;;;;5025870;23;20586;-91
2024/01/14 02:05:57;;;;;;;15.33;6.00;;;1.40;99.90;;;;;;5070684;23;20515;-93
2024/01/14 02:07:59;;;;;;;17.97;8.23;;;1.30;99.90;;;;;;5047613;23;20158;-93
2024/01/14 02:10:00;;;;;;;8.17;4.67;;;1.30;99.90;;;;;;5070922;23;20158;-93
2024/01/14 02:12:01;;;;;;;14.70;5.53;;;1.40;99.90;;;;;;5046333;23;20154;-90
2024/01/14 02:14:02;;;;;;;16.70;7.27;;;1.50;99.90;;;;;;5046481;23;20162;-90
2024/01/14 02:16:03;;;;;;;21.53;7.37;;;1.40;99.90;;;;;;5070102;23;20174;-89
2024/01/14 02:18:04;;;;;;;13.50;6.40;;;1.40;99.90;;;;;;5046615;23;20181;-93
2024/01/14 02:20:07;;;;;;;29.87;6.87;;;1.50;99.90;;;;;;5046224;23;20513;-92
2024/01/14 02:22:13;;;;;;;14.90;4.33;;;1.50;99.90;;;;;;5046256;23;20198;-94
2024/01/14 02:24:33;;;;;;;17.23;4.97;;;1.50;99.90;;;;;;5045941;23;20477;-90
2024/01/14 02:26:34;;;;;;;28.00;7.60;;;1.60;99.90;;;;;;5070022;23;20609;-89
2024/01/14 02:28:35;;;;;;;16.50;6.00;;;1.70;99.90;;;;;;5046118;23;20157;-89
2024/01/14 02:30:36;;;;;;;22.43;5.87;;;1.70;99.90;;;;;;5045879;23;20154;-90
2024/01/14 02:32:38;;;;;;;13.97;6.23;;;1.80;99.90;;;;;;5045923;23;20257;-91
2024/01/14 02:34:39;;;;;;;13.10;5.83;;;1.90;99.90;;;;;;5070166;23;20162;-89
2024/01/14 02:36:40;;;;;;;15.80;5.13;;;1.80;99.90;;;;;;5045838;23;20262;-93
2024/01/14 02:38:41;;;;;;;15.67;5.70;;;1.70;99.90;;;;;;5070338;23;20158;-92
2024/01/14 02:40:42;;;;;;;8.40;4.27;;;1.70;99.90;;;;;;5070062;23;20217;-92
2024/01/14 02:42:43;;;;;;;8.60;5.37;;;1.50;99.90;;;;;;5070383;23;20154;-91
2024/01/14 02:44:43;;;;;;;18.63;5.43;;;1.20;99.90;;;;;;5046005;23;20154;-94
2024/01/14 02:46:44;;;;;;;14.27;6.10;;;1.10;99.90;;;;;;5045981;23;20552;-92
2024/01/14 02:48:45;;;;;;;9.23;4.50;;;1.00;99.90;;;;;;5046094;23;20264;-94
2024/01/14 02:50:46;;;;;;;16.47;5.23;;;1.00;99.90;;;;;;5046054;23;20585;-92
2024/01/14 02:52:46;;;;;;;12.63;4.57;;;1.00;99.90;;;;;;5070196;23;20149;-92
2024/01/14 02:54:48;;;;;;;6.63;2.23;;;1.00;99.90;;;;;;5045869;23;20289;-89
2024/01/14 02:56:48;;;;;;;10.93;5.37;;;0.90;99.90;;;;;;5046084;23;20202;-94
2024/01/14 02:58:49;;;;;;;17.53;4.87;;;0.90;99.90;;;;;;5070190;23;20193;-92
2024/01/14 03:00:50;;;;;;;8.40;4.30;;;0.90;99.90;;;;;;5045974;23;20154;-94
2024/01/14 03:02:51;;;;;;;17.13;6.50;;;1.00;99.90;;;;;;5045729;23;20294;-92
2024/01/14 03:04:52;;;;;;;20.13;5.67;;;1.10;99.90;;;;;;5053246;23;20162;-90
2024/01/14 03:06:53;;;;;;;12.00;5.03;;;1.10;99.90;;;;;;5021924;23;20194;-91
2024/01/14 03:08:53;;;;;;;18.23;5.37;;;1.20;99.90;;;;;;5045271;23;20229;-91
2024/01/14 03:10:54;;;;;;;23.43;5.17;;;1.30;99.90;;;;;;5021414;23;20159;-90
2024/01/14 03:12:55;;;;;;;12.33;6.47;;;1.30;99.90;;;;;;5022014;23;20154;-93
2024/01/14 03:14:56;;;;;;;17.20;5.97;;;1.20;99.90;;;;;;5045600;23;20155;-89
2024/01/14 03:16:59;;;;;;;10.17;4.73;;;1.40;99.90;;;;;;5045698;23;20169;-90
2024/01/14 03:19:00;;;;;;;18.20;6.27;;;1.50;99.90;;;;;;5045625;23;20632;-89
2024/01/14 03:21:00;;;;;;;18.93;5.97;;;1.70;99.90;;;;;;5045720;23;20154;-90
2024/01/14 03:23:01;;;;;;;11.97;4.37;;;1.70;99.90;;;;;;5045817;23;20159;-89
2024/01/14 03:25:02;;;;;;;11.13;4.63;;;1.80;99.90;;;;;;5022011;23;20211;-89
2024/01/14 03:27:04;;;;;;;29.23;6.10;;;1.60;99.90;;;;;;5045772;23;20228;-89
2024/01/14 03:29:05;;;;;;;14.77;6.30;;;1.50;99.90;;;;;;5022321;23;20215;-89
2024/01/14 03:31:07;;;;;;;11.13;4.10;;;1.50;99.90;;;;;;5022222;23;20167;-92
2024/01/14 03:33:08;;;;;;;12.67;4.50;;;1.60;99.90;;;;;;5046178;23;20155;-90
2024/01/14 03:35:09;;;;;;;11.13;4.03;;;1.50;99.90;;;;;;5045873;23;20171;-90
2024/01/14 03:37:10;;;;;;;10.23;4.57;;;1.50;99.90;;;;;;5021994;23;20159;-90
2024/01/14 03:39:10;;;;;;;7.93;4.57;;;1.30;99.90;;;;;;5021870;23;20154;-90
2024/01/14 03:41:12;;;;;;;13.27;5.53;;;1.20;99.90;;;;;;5022132;23;20156;-91
2024/01/14 03:43:13;;;;;;;8.40;5.40;;;1.20;99.90;;;;;;5021743;23;20155;-89
2024/01/14 03:45:13;;;;;;;13.03;6.13;;;1.30;99.90;;;;;;5045083;23;20262;-89
2024/01/14 03:47:14;;;;;;;13.80;5.37;;;1.20;99.90;;;;;;5045647;23;20588;-92
2024/01/14 03:49:15;;;;;;;16.23;4.83;;;1.30;99.90;;;;;;5045483;23;20154;-93
2024/01/14 03:51:16;;;;;;;11.00;5.23;;;1.30;99.90;;;;;;5021869;23;20159;-89
2024/01/14 03:53:16;;;;;;;22.40;6.73;;;1.30;99.90;;;;;;5045812;23;20146;-89
2024/01/14 03:55:17;;;;;;;22.63;6.23;;;1.40;99.90;;;;;;5045430;23;20170;-89
2024/01/14 03:57:18;;;;;;;13.93;4.50;;;1.40;99.90;;;;;;5021726;23;20218;-89
2024/01/14 03:59:19;;;;;;;10.03;4.33;;;1.30;99.90;;;;;;5069784;23;20236;-90
2024/01/14 04:01:20;;;;;;;14.50;5.43;;;1.50;99.90;;;;;;5021568;23;20607;-93
2024/01/14 04:03:20;;;;;;;11.10;5.43;;;1.40;99.90;;;;;;5021514;23;20166;-94
2024/01/14 04:05:22;;;;;;;11.43;5.23;;;1.40;99.90;;;;;;5046314;23;20190;-90
2024/01/14 04:07:23;;;;;;;16.07;4.40;;;1.40;99.90;;;;;;5022499;23;20249;-90
2024/01/14 04:09:24;;;;;;;12.60;4.07;;;1.40;99.90;;;;;;5045142;23;20146;-89
2024/01/14 04:11:24;;;;;;;8.97;4.30;;;1.40;99.90;;;;;;5021447;23;20235;-89
2024/01/14 04:13:25;;;;;;;7.40;3.23;;;1.20;99.90;;;;;;5045147;23;20550;-89
2024/01/14 04:15:26;;;;;;;17.97;4.70;;;1.10;99.90;;;;;;5021444;23;20215;-93
2024/01/14 04:17:27;;;;;;;10.80;4.57;;;1.00;99.90;;;;;;5045372;23;20151;-90
2024/01/14 04:19:27;;;;;;;13.90;5.37;;;1.10;99.90;;;;;;5045342;23;20184;-90
2024/01/14 04:21:28;;;;;;;15.20;4.50;;;1.10;99.90;;;;;;5021270;23;20682;-93
2024/01/14 04:23:29;;;;;;;7.43;3.03;;;1.10;99.90;;;;;;5045112;23;20146;-93
2024/01/14 04:25:30;;;;;;;10.67;5.87;;;1.10;99.90;;;;;;5021426;23;20578;-89
2024/01/14 04:27:30;;;;;;;9.03;3.40;;;1.10;99.90;;;;;;5021272;23;20214;-89
2024/01/14 04:29:31;;;;;;;10.40;5.17;;;1.20;99.90;;;;;;5045175;23;20506;-89
2024/01/14 04:31:32;;;;;;;10.70;4.53;;;1.20;99.90;;;;;;5021229;23;20670;-89
2024/01/14 04:33:33;;;;;;;18.03;4.37;;;1.20;99.90;;;;;;5021493;23;20162;-90
2024/01/14 04:35:33;;;;;;;9.57;4.47;;;1.20;99.90;;;;;;5021544;23;20307;-89
2024/01/14 04:37:34;;;;;;;14.23;4.73;;;1.20;99.90;;;;;;5045395;23;20241;-90
2024/01/14 04:39:35;;;;;;;14.03;3.07;;;1.30;99.90;;;;;;5021324;23;20165;-89
2024/01/14 04:41:36;;;;;;;17.13;3.77;;;1.40;99.90;;;;;;5045353;23;20198;-90
2024/01/14 04:43:36;;;;;;;4.50;2.67;;;1.20;99.90;;;;;;5044686;23;20188;-90
2024/01/14 04:45:37;;;;;;;8.97;3.53;;;1.10;99.90;;;;;;5020995;23;20551;-89
2024/01/14 04:47:38;;;;;;;11.27;4.13;;;0.90;99.90;;;;;;5045336;23;20169;-88
2024/01/14 04:49:39;;;;;;;11.13;4.70;;;0.90;99.90;;;;;;5021504;23;20159;-93
2024/01/14 04:51:40;;;;;;;8.50;3.33;;;0.90;99.90;;;;;;5044815;23;20716;-92
2024/01/14 04:53:41;;;;;;;13.43;4.23;;;1.00;99.90;;;;;;5021537;23;20165;-90
2024/01/14 04:55:41;;;;;;;13.23;4.97;;;0.90;99.90;;;;;;5021270;23;20523;-90
2024/01/14 04:57:42;;;;;;;9.03;4.90;;;1.00;99.90;;;;;;5045260;23;20150;-89
2024/01/14 04:59:43;;;;;;;8.53;4.30;;;1.20;99.90;;;;;;5045351;23;20146;-89
2024/01/14 05:01:44;;;;;;;14.00;5.07;;;1.10;99.90;;;;;;5021285;23;20159;-89
2024/01/14 05:03:45;;;;;;;17.47;6.30;;;1.10;99.90;;;;;;5021262;23;20155;-89
2024/01/14 05:05:47;;;;;;;15.87;5.47;;;1.10;99.90;;;;;;5020981;23;20182;-89
2024/01/14 05:07:48;;;;;;;8.17;4.20;;;1.40;99.90;;;;;;5045030;23;20153;-90
2024/01/14 05:09:49;;;;;;;14.47;4.70;;;1.20;99.90;;;;;;5045165;23;20178;-89
2024/01/14 05:11:50;;;;;;;9.97;4.83;;;1.10;99.90;;;;;;5021320;23;20159;-92
2024/01/14 05:13:51;;;;;;;13.97;6.20;;;1.10;99.90;;;;;;5045035;23;20217;-91
2024/01/14 05:15:52;;;;;;;18.60;5.87;;;1.10;99.90;;;;;;5044736;23;20525;-90
2024/01/14 05:17:52;;;;;;;11.07;4.63;;;1.20;99.90;;;;;;5021077;23;20151;-89
2024/01/14 05:19:53;;;;;;;11.83;5.03;;;1.10;99.90;;;;;;5045401;23;20169;-93
2024/01/14 05:21:54;;;;;;;18.00;7.10;;;1.00;99.90;;;;;;5045205;23;20150;-89
2024/01/14 05:23:55;;;;;;;12.67;6.30;;;1.00;99.90;;;;;;5021121;23;20234;-90
2024/01/14 05:25:56;;;;;;;9.87;4.50;;;1.10;99.90;;;;;;5044859;23;20182;-90
2024/01/14 05:27:58;;;;;;;13.57;4.77;;;1.10;99.90;;;;;;5021177;23;20237;-93
2024/01/14 05:29:58;;;;;;;13.30;5.20;;;1.20;99.90;;;;;;5044926;23;20639;-89
2024/01/14 05:31:59;;;;;;;13.60;5.03;;;1.20;99.90;;;;;;5021213;23;20170;-95
2024/01/14 05:34:00;;;;;;;17.60;6.27;;;1.30;99.90;;;;;;5045042;23;20570;-91
2024/01/14 05:36:01;;;;;;;12.00;5.63;;;1.30;99.90;;;;;;5021015;23;20175;-93
2024/01/14 05:38:02;;;;;;;13.20;6.17;;;1.30;99.90;;;;;;5020967;23;20278;-89
2024/01/14 05:40:05;;;;;;;16.17;5.43;;;1.40;99.90;;;;;;5021037;23;20159;-93
2024/01/14 05:42:06;;;;;;;15.07;4.57;;;1.60;99.90;;;;;;5021096;23;20151;-90
2024/01/14 05:44:06;;;;;;;10.13;4.07;;;1.60;99.90;;;;;;5045049;23;20154;-93
2024/01/14 05:46:07;;;;;;;9.30;5.00;;;1.40;99.90;;;;;;5020834;23;20206;-93
2024/01/14 05:48:08;;;;;;;19.50;4.30;;;1.40;99.90;;;;;;5044913;23;20665;-93
2024/01/14 05:50:09;;;;;;;15.30;4.93;;;1.40;99.90;;;;;;5044802;23;20458;-93
2024/01/14 05:52:10;;;;;;;16.17;5.43;;;1.50;99.90;;;;;;5044904;23;20161;-89
2024/01/14 05:54:11;;;;;;;23.03;6.60;;;1.40;99.90;;;;;;5021067;23;20151;-89
2024/01/14 05:56:12;;;;;;;13.63;4.60;;;1.40;99.90;;;;;;5020712;23;20202;-89
2024/01/14 05:58:12;;;;;;;11.80;5.37;;;1.40;99.90;;;;;;5044936;23;20161;-90
2024/01/14 06:00:14;;;;;;;14.27;4.47;;;1.30;99.90;;;;;;5020815;23;20683;-90
2024/01/14 06:02:14;;;;;;;15.23;6.73;;;1.20;99.90;;;;;;5020973;23;20602;-90
2024/01/14 06:04:15;;;;;;;12.43;5.73;;;1.20;99.90;;;;;;5030403;23;20250;-93
2024/01/14 06:06:16;;;;;;;12.77;4.43;;;1.20;99.90;;;;;;5045069;23;20186;-90
2024/01/14 06:08:17;;;;;;;13.70;5.53;;;1.30;99.90;;;;;;5044596;23;20543;-90
2024/01/14 06:10:17;;;;;;;20.67;6.93;;;1.20;99.90;;;;;;5068947;23;20508;-90
2024/01/14 06:12:19;;;;;;;14.27;5.03;;;1.20;99.90;;;;;;5069324;23;20210;-90
2024/01/14 06:14:19;;;;;;;16.30;6.80;;;1.20;99.90;;;;;;5045011;23;20155;-90
2024/01/14 06:16:20;;;;;;;12.37;4.77;;;1.30;99.90;;;;;;5044429;23;20177;-90
2024/01/14 06:18:21;;;;;;;17.17;5.73;;;1.30;99.90;;;;;;5044876;23;20593;-90
2024/01/14 06:20:22;;;;;;;15.83;6.40;;;1.40;99.90;;;;;;5069188;23;20154;-90
2024/01/14 06:22:23;;;;;;;19.63;6.10;;;1.40;99.90;;;;;;5044868;23;20175;-92
2024/01/14 06:24:23;;;;;;;20.73;6.30;;;1.40;99.90;;;;;;5044576;23;20162;-90
2024/01/14 06:26:24;;;;;;;7.50;3.70;;;1.40;99.90;;;;;;5044231;23;20197;-90
2024/01/14 06:28:26;;;;;;;10.33;4.00;;;1.50;99.90;;;;;;5044755;23;20311;-90
2024/01/14 06:30:26;;;;;;;12.20;4.93;;;1.40;99.90;;;;;;5044769;23;20170;-89
2024/01/14 06:32:27;;;;;;;8.17;4.70;;;1.30;99.90;;;;;;5044615;23;20169;-90
2024/01/14 06:34:28;;;;;;;13.20;5.50;;;1.20;99.90;;;;;;5044743;23;20154;-90
2024/01/14 06:36:29;;;;;;;16.63;4.70;;;1.20;99.90;;;;;;5044819;23;20174;-90
2024/01/14 06:38:29;;;;;;;12.63;5.67;;;1.20;99.90;;;;;;5044640;23;20155;-90
2024/01/14 06:40:30;;;;;;;10.73;5.27;;;1.10;99.90;;;;;;5068564;23;20253;-90
2024/01/14 06:42:31;;;;;;;10.87;5.50;;;1.20;99.90;;;;;;5044665;23;20162;-90
2024/01/14 06:44:32;;;;;;;15.80;7.40;;;1.30;99.90;;;;;;5069928;23;20252;-90
2024/01/14 06:46:32;;;;;;;12.80;5.87;;;1.40;99.90;;;;;;5045665;23;20281;-90
2024/01/14 06:48:33;;;;;;;16.97;6.10;;;1.40;99.90;;;;;;5045817;23;20202;-89
2024/01/14 06:50:34;;;;;;;11.87;3.77;;;1.30;99.90;;;;;;5046012;23;20184;-90
2024/01/14 06:52:35;;;;;;;10.27;4.73;;;1.20;99.90;;;;;;5094599;23;20153;-94
2024/01/14 06:54:39;;;;;;;10.83;5.20;;;1.20;99.90;;;;;;5046130;23;20566;-92
2024/01/14 06:56:43;;;;;;;16.07;8.90;;;1.10;99.90;;;;;;5046072;23;20253;-90
2024/01/14 06:58:45;;;;;;;9.90;4.43;;;1.10;99.90;;;;;;5045966;23;20208;-93
2024/01/14 07:00:46;;;;;;;9.63;4.93;;;1.00;99.90;;;;;;5045950;23;20154;-90
2024/01/14 07:02:46;;;;;;;15.80;6.07;;;1.00;99.90;;;;;;5070786;23;20683;-96
2024/01/14 07:04:47;;;;;;;12.07;5.43;;;1.00;99.90;;;;;;5070089;23;20168;-90
2024/01/14 07:06:48;;;;;;;16.63;6.53;;;1.10;99.90;;;;;;5046020;23;20224;-90
2024/01/14 07:08:49;;;;;;;9.80;3.60;;;1.10;99.90;;;;;;5046234;23;20158;-89
2024/01/14 07:10:49;;;;;;;11.63;6.17;;;0.90;99.90;;;;;;5046265;23;20530;-90
2024/01/14 07:12:50;;;;;;;10.70;6.23;;;0.90;99.90;;;;;;5045886;23;20151;-90
2024/01/14 07:14:51;;;;;;;10.10;5.47;;;0.80;99.90;;;;;;5070159;23;20637;-90
2024/01/14 07:16:52;;;;;;;10.73;5.10;;;0.70;99.90;;;;;;5070095;23;20161;-90
2024/01/14 07:18:53;;;;;;;6.23;4.17;;;0.80;99.90;;;;;;5045908;23;20157;-90
2024/01/14 07:20:54;;;;;;;10.80;5.13;;;0.80;99.90;;;;;;5046013;23;20216;-94
2024/01/14 07:22:55;;;;;;;13.73;6.27;;;0.70;99.90;;;;;;5070184;23;20149;-90
2024/01/14 07:24:56;;;;;;;15.63;6.17;;;0.70;99.90;;;;;;5045886;23;20238;-94
2024/01/14 07:26:58;;;;;;;9.63;4.50;;;0.90;99.90;;;;;;5045809;23;20190;-91
2024/01/14 07:28:59;;;;;;;20.13;6.50;;;0.90;99.90;;;;;;5069874;23;20221;-90
2024/01/14 07:31:00;;;;;;;15.37;6.50;;;0.80;99.90;;;;;;5070117;23;20189;-90
2024/01/14 07:33:00;;;;;;;16.37;7.23;;;0.80;99.90;;;;;;5045996;23;20158;-90
2024/01/14 07:35:01;;;;;;;9.87;5.70;;;0.90;99.90;;;;;;5045506;23;20185;-90
2024/01/14 07:37:03;;;;;;;15.50;6.23;;;1.00;99.90;;;;;;5069913;23;20161;-90
2024/01/14 07:39:04;;;;;;;12.30;4.80;;;1.00;99.90;;;;;;5045705;23;20156;-90
2024/01/14 07:41:06;;;;;;;10.60;4.80;;;1.10;99.90;;;;;;5070044;23;20154;-91
2024/01/14 07:43:07;;;;;;;7.00;3.97;;;1.10;99.90;;;;;;5045588;23;20177;-90
2024/01/14 07:45:08;;;;;;;18.20;5.03;;;1.10;99.90;;;;;;5045376;23;20185;-91
2024/01/14 07:47:09;;;;;;;16.63;5.67;;;1.00;99.90;;;;;;5045742;23;20198;-93
2024/01/14 07:49:10;;;;;;;8.93;4.07;;;1.00;99.90;;;;;;5069610;23;20146;-94
2024/01/14 07:51:11;;;;;;;14.60;5.33;;;1.00;99.90;;;;;;5045280;23;20154;-90
2024/01/14 07:53:13;;;;;;;14.13;4.27;;;1.00;99.90;;;;;;5045402;23;20150;-92
2024/01/14 07:55:13;;;;;;;20.80;5.13;;;1.00;99.90;;;;;;5069737;23;20260;-90
2024/01/14 07:57:14;;;;;;;13.73;6.00;;;0.80;99.90;;;;;;5046092;23;20198;-90
2024/01/14 07:59:15;;;;;;;11.03;4.67;;;0.90;99.90;;;;;;5045507;23;20567;-90
2024/01/14 08:01:17;;;;;;;15.13;4.47;;;0.90;99.90;;;;;;5046371;23;20596;-90
2024/01/14 08:03:18;;;;;;;11.63;5.77;;;0.80;99.90;;;;;;5048856;23;20157;-90
2024/01/14 08:05:19;;;;;;;17.10;6.80;;;0.70;99.90;;;;;;5046865;23;20276;-90
2024/01/14 08:07:20;;;;;;;4.23;2.43;;;0.80;99.90;;;;;;5045611;23;20241;-90
2024/01/14 08:09:20;;;;;;;13.27;5.23;;;0.80;99.90;;;;;;5069789;23;20160;-90
2024/01/14 08:11:22;;;;;;;14.50;3.43;;;0.80;99.90;;;;;;5021316;23;20198;-94
2024/01/14 08:13:22;;;;;;;12.03;4.43;;;0.80;99.90;;;;;;5069524;23;20171;-94
2024/01/14 08:15:23;;;;;;;8.70;4.13;;;0.70;99.90;;;;;;5020959;23;20178;-90
2024/01/14 08:17:25;;;;;;;13.07;5.43;;;0.70;99.90;;;;;;5045149;23;20166;-90
2024/01/14 08:19:26;;;;;;;11.10;6.67;;;0.70;99.90;;;;;;5045400;23;20230;-90
2024/01/14 08:21:27;;;;;;;14.60;6.60;;;0.80;99.90;;;;;;5045367;23;20166;-93
2024/01/14 08:23:32;;;;;;;10.93;5.07;;;0.80;99.90;;;;;;5021688;23;20155;-95
2024/01/14 08:25:34;;;;;;;10.33;5.90;;;1.00;99.90;;;;;;5069337;23;20240;-91
2024/01/14 08:27:35;;;;;;;22.27;7.23;;;0.90;99.90;;;;;;5021728;23;20269;-90
2024/01/14 08:29:35;;;;;;;15.73;4.87;;;0.80;99.90;;;;;;5069508;23;20157;-94
2024/01/14 08:31:36;;;;;;;4.50;3.33;;;0.80;99.90;;;;;;5021294;23;20182;-90
2024/01/14 08:33:37;;;;;;;24.33;7.77;;;0.70;99.90;;;;;;5045183;23;20158;-90
2024/01/14 08:35:38;;;;;;;16.40;8.03;;;0.80;99.90;;;;;;5021089;23;20185;-90
2024/01/14 08:37:44;;;;;;;17.73;5.30;;;0.80;99.90;;;;;;5021368;23;20642;-90
2024/01/14 08:39:44;;;;;;;4.70;2.70;;;0.80;99.90;;;;;;5021472;23;20156;-90
2024/01/14 08:41:46;;;;;;;9.17;4.03;;;0.80;99.90;;;;;;5045241;23;20225;-94
2024/01/14 08:43:46;;;;;;;12.27;5.30;;;0.70;99.90;;;;;;5045587;23;20540;-89
2024/01/14 08:45:47;;;;;;;4.50;2.60;;;0.70;99.90;;;;;;5045158;23;20178;-90
2024/01/14 08:47:48;;;;;;;10.07;4.53;;;0.70;99.90;;;;;;5021806;23;20159;-89
2024/01/14 08:49:49;;;;;;;15.10;6.60;;;0.70;99.90;;;;;;5045625;23;20151;-91
2024/01/14 08:51:50;;;;;;;9.17;3.63;;;0.80;99.90;;;;;;5045415;23;20155;-90
2024/01/14 08:53:50;;;;;;;8.33;4.80;;;0.80;99.90;;;;;;5021533;23;20186;-89
2024/01/14 08:55:51;;;;;;;9.83;2.63;;;0.80;99.90;;;;;;5070416;23;20497;-90
2024/01/14 08:57:52;;;;;;;6.47;2.77;;;0.80;99.90;;;;;;5022215;23;20185;-91
2024/01/14 08:59:53;;;;;;;8.13;3.90;;;0.80;99.90;;;;;;5069931;23;20200;-90
2024/01/14 09:01:54;;;;;;;8.70;4.33;;;0.80;99.90;;;;;;5021621;23;20159;-91
2024/01/14 09:03:54;;;;;;;7.73;4.00;;;0.80;99.90;;;;;;5025731;23;20181;-90
2024/01/14 09:05:55;;;;;;;11.53;4.87;;;0.80;99.90;;;;;;5044979;23;20198;-90
2024/01/14 09:07:56;;;;;;;6.40;4.07;;;0.80;99.90;;;;;;5044735;23;20162;-90
2024/01/14 09:09:57;;;;;;;12.50;5.53;;;0.80;99.90;;;;;;5045823;23;20165;-90
2024/01/14 09:11:57;;;;;;;10.50;3.73;;;0.90;99.90;;;;;;5069821;23;20158;-89
2024/01/14 09:13:58;;;;;;;14.80;5.03;;;1.00;99.90;;;;;;5046160;23;20642;-95
2024/01/14 09:15:59;;;;;;;6.03;3.23;;;0.80;99.90;;;;;;5045788;23;20249;-90
2024/01/14 09:18:00;;;;;;;12.20;5.03;;;0.90;99.90;;;;;;5045466;23;20162;-90
2024/01/14 09:20:01;;;;;;;9.97;2.83;;;0.90;99.90;;;;;;5045935;23;20150;-90
2024/01/14 09:22:01;;;;;;;7.00;2.93;;;1.00;99.90;;;;;;5045670;23;20165;-90
2024/01/14 09:24:02;;;;;;;5.63;3.23;;;1.00;99.90;;;;;;5045323;23;20155;-92
2024/01/14 09:26:04;;;;;;;8.23;4.37;;;1.00;99.90;;;;;;5045474;23;20189;-90
2024/01/14 09:28:05;;;;;;;3.30;2.17;;;1.10;99.90;;;;;;5045597;23;20166;-90
2024/01/14 09:30:07;;;;;;;11.83;5.17;;;1.10;99.90;;;;;;5045784;23;21090;-90
2024/01/14 09:32:08;;;;;;;9.80;2.90;;;1.20;99.90;;;;;;5045637;23;20481;-89
2024/01/14 09:34:09;;;;;;;6.30;3.73;;;1.20;99.90;;;;;;5046350;23;20158;-91
2024/01/14 09:36:10;;;;;;;3.57;2.17;;;1.30;99.90;;;;;;5045676;23;20185;-91
2024/01/14 09:38:11;;;;;;;31.07;9.90;;;1.30;99.90;;;;;;5069545;23;20153;-90
2024/01/14 09:40:14;;;;;;;8.57;4.07;;;1.30;99.90;;;;;;5045325;23;20190;-91
2024/01/14 09:42:32;;;;;;;8.00;4.07;;;1.20;99.90;;;;;;5070109;23;20161;-90
2024/01/14 09:44:34;;;;;;;13.10;4.23;;;1.30;99.90;;;;;;5059491;23;20202;-91
2024/01/14 09:46:35;;;;;;;9.50;3.97;;;1.40;99.90;;;;;;5061973;23;20230;-89
2024/01/14 09:48:37;;;;;;;8.80;2.70;;;1.20;99.90;;;;;;5087049;23;20140;-89
2024/01/14 09:50:38;;;;;;;5.87;4.50;;;1.10;99.90;;;;;;5087592;23;20165;-90
2024/01/14 09:52:41;;;;;;;6.63;3.00;;;1.20;99.90;;;;;;5062676;23;20231;-89
2024/01/14 09:54:41;;;;;;;10.83;3.20;;;1.20;99.90;;;;;;5090453;23;20158;-89
2024/01/14 09:56:44;;;;;;;9.53;4.17;;;1.10;99.90;;;;;;5065493;23;20247;-89
2024/01/14 09:58:46;;;;;;;11.57;4.80;;;1.30;99.90;;;;;;5089150;23;20185;-90
2024/01/14 10:00:48;;;;;;;10.53;4.33;;;1.30;99.90;;;;;;5065166;23;20210;-89
2024/01/14 10:02:49;;;;;;;12.70;4.00;;;1.30;99.90;;;;;;5085384;23;20211;-89
2024/01/14 10:04:50;;;;;;;4.83;2.60;;;1.40;99.90;;;;;;5044619;23;20147;-90
2024/01/14 10:06:52;;;;;;;11.27;3.87;;;1.30;99.90;;;;;;5088565;23;20188;-91
2024/01/14 10:08:53;;;;;;;9.43;3.83;;;1.20;99.90;;;;;;5066016;23;20142;-90
2024/01/14 10:10:54;;;;;;;4.97;2.77;;;1.20;99.90;;;;;;5039952;23;20155;-89
2024/01/14 10:12:54;;;;;;;18.70;4.33;;;1.20;99.90;;;;;;5064150;23;20182;-89
2024/01/14 10:14:59;;;;;;;9.00;4.33;;;1.30;99.90;;;;;;5086861;23;20160;-90
2024/01/14 10:17:00;;;;;;;4.10;2.77;;;1.20;99.90;;;;;;5064573;23;20150;-89
2024/01/14 10:19:01;;;;;;;12.17;4.20;;;1.20;99.90;;;;;;5089088;23;20148;-90
2024/01/14 10:21:02;;;;;;;6.80;3.77;;;1.30;99.90;;;;;;5066248;23;20150;-89
2024/01/14 10:23:03;;;;;;;3.83;2.97;;;1.30;99.90;;;;;;5065976;23;20221;-91
2024/01/14 10:25:04;;;;;;;6.93;3.17;;;1.50;99.90;;;;;;5042716;23;20155;-89
2024/01/14 10:27:05;;;;;;;15.50;4.80;;;1.40;99.90;;;;;;5066836;23;20214;-89
2024/01/14 10:29:07;;;;;;;8.90;3.40;;;1.30;99.90;;;;;;5066556;23;20131;-91
2024/01/14 10:31:07;;;;;;;6.27;3.70;;;1.50;99.90;;;;;;5042363;23;20174;-90
2024/01/14 10:33:09;;;;;;;7.00;3.00;;;1.40;99.90;;;;;;5066342;23;20147;-94